sensor_id;sensor_type;location;lat;lon;timestamp;pressure;altitude;pressure_sealevel;temperature;humidity
57801;BME280;43627;42.728;23.256;2023-09-19T00:02:21;95381.25;;;15.28;100.00
57801;BME280;43627;42.728;23.256;2023-09-19T00:04:48;95383.28;;;15.33;100.00
57801;BME280;43627;42.728;23.256;2023-09-19T00:07:15;95366.69;;;15.22;100.00
57801;BME280;43627;42.728;23.256;2023-09-19T00:09:42;95376.25;;;15.27;100.00
57801;BME280;43627;42.728;23.256;2023-09-19T00:12:10;95358.72;;;15.04;100.00
57801;BME280;43627;42.728;23.256;2023-09-19T00:14:39;95373.69;;;15.23;100.00
57801;BME280;43627;42.728;23.256;2023-09-19T00:17:06;95360.31;;;15.10;100.00
57801;BME280;43627;42.728;23.256;2023-09-19T00:19:35;95370.91;;;15.18;100.00
57801;BME280;43627;42.728;23.256;2023-09-19T00:22:02;95365.88;;;15.16;100.00
57801;BME280;43627;42.728;23.256;2023-09-19T00:24:29;95371.44;;;15.22;100.00
57801;BME280;43627;42.728;23.256;2023-09-19T00:26:56;95356.66;;;15.19;100.00
57801;BME280;43627;42.728;23.256;2023-09-19T00:29:25;95356.88;;;15.15;100.00
57801;BME280;43627;42.728;23.256;2023-09-19T00:31:55;95345.59;;;15.13;100.00
57801;BME280;43627;42.728;23.256;2023-09-19T00:34:23;95342.94;;;15.19;100.00
57801;BME280;43627;42.728;23.256;2023-09-19T00:36:51;95345.84;;;15.10;100.00
57801;BME280;43627;42.728;23.256;2023-09-19T00:39:19;95356.41;;;15.17;100.00
57801;BME280;43627;42.728;23.256;2023-09-19T00:41:46;95356.88;;;15.15;100.00
57801;BME280;43627;42.728;23.256;2023-09-19T00:44:14;95369.09;;;15.14;100.00
57801;BME280;43627;42.728;23.256;2023-09-19T00:46:45;95372.47;;;15.04;100.00
57801;BME280;43627;42.728;23.256;2023-09-19T00:49:16;95366.22;;;15.03;100.00
57801;BME280;43627;42.728;23.256;2023-09-19T00:51:43;95369.66;;;14.98;100.00
57801;BME280;43627;42.728;23.256;2023-09-19T00:54:13;95370.47;;;15.04;100.00
57801;BME280;43627;42.728;23.256;2023-09-19T00:56:45;95346.34;;;14.88;100.00
57801;BME280;43627;42.728;23.256;2023-09-19T00:59:12;95350.38;;;14.93;100.00
57801;BME280;43627;42.728;23.256;2023-09-19T01:01:39;95349.13;;;14.94;100.00
57801;BME280;43627;42.728;23.256;2023-09-19T01:04:06;95349.34;;;14.90;100.00
57801;BME280;43627;42.728;23.256;2023-09-19T01:06:33;95356.13;;;14.95;100.00
57801;BME280;43627;42.728;23.256;2023-09-19T01:09:00;95359.84;;;14.92;100.00
57801;BME280;43627;42.728;23.256;2023-09-19T01:11:37;95357.97;;;14.83;100.00
57801;BME280;43627;42.728;23.256;2023-09-19T01:14:29;95371.22;;;14.84;100.00
57801;BME280;43627;42.728;23.256;2023-09-19T01:17:16;95358.38;;;14.76;100.00
57801;BME280;43627;42.728;23.256;2023-09-19T01:25:57;95355.78;;;14.67;100.00
57801;BME280;43627;42.728;23.256;2023-09-19T01:31:31;95367.75;;;14.49;100.00
57801;BME280;43627;42.728;23.256;2023-09-19T01:34:03;95367.00;;;14.48;100.00
57801;BME280;43627;42.728;23.256;2023-09-19T01:36:36;95360.19;;;14.44;100.00
57801;BME280;43627;42.728;23.256;2023-09-19T01:39:05;95364.13;;;14.57;100.00
57801;BME280;43627;42.728;23.256;2023-09-19T01:41:58;95371.47;;;14.66;100.00
57801;BME280;43627;42.728;23.256;2023-09-19T01:44:49;95371.56;;;14.72;100.00
57801;BME280;43627;42.728;23.256;2023-09-19T01:47:33;95364.09;;;14.72;100.00
57801;BME280;43627;42.728;23.256;2023-09-19T01:53:04;95366.34;;;14.74;100.00
57801;BME280;43627;42.728;23.256;2023-09-19T01:55:41;95364.50;;;14.65;100.00
57801;BME280;43627;42.728;23.256;2023-09-19T01:58:32;95353.16;;;14.57;100.00
57801;BME280;43627;42.728;23.256;2023-09-19T02:01:01;95375.09;;;14.57;100.00
57801;BME280;43627;42.728;23.256;2023-09-19T02:03:28;95370.38;;;14.58;100.00
57801;BME280;43627;42.728;23.256;2023-09-19T02:05:55;95364.34;;;14.54;100.00
57801;BME280;43627;42.728;23.256;2023-09-19T02:08:22;95373.59;;;14.56;100.00
57801;BME280;43627;42.728;23.256;2023-09-19T02:10:52;95370.59;;;14.54;100.00
57801;BME280;43627;42.728;23.256;2023-09-19T02:13:21;95365.00;;;14.49;100.00
57801;BME280;43627;42.728;23.256;2023-09-19T02:15:49;95361.72;;;14.45;100.00
57801;BME280;43627;42.728;23.256;2023-09-19T02:18:15;95361.31;;;14.37;100.00
57801;BME280;43627;42.728;23.256;2023-09-19T02:20:43;95339.81;;;14.15;100.00
57801;BME280;43627;42.728;23.256;2023-09-19T02:23:10;95361.66;;;14.10;100.00
57801;BME280;43627;42.728;23.256;2023-09-19T02:25:37;95349.13;;;14.03;100.00
57801;BME280;43627;42.728;23.256;2023-09-19T02:28:06;95360.63;;;14.07;100.00
57801;BME280;43627;42.728;23.256;2023-09-19T02:30:35;95361.19;;;14.11;100.00
57801;BME280;43627;42.728;23.256;2023-09-19T02:33:03;95342.66;;;14.06;100.00
57801;BME280;43627;42.728;23.256;2023-09-19T02:35:30;95340.00;;;14.12;100.00
57801;BME280;43627;42.728;23.256;2023-09-19T02:38:02;95342.56;;;14.00;100.00
57801;BME280;43627;42.728;23.256;2023-09-19T02:40:33;95347.94;;;14.10;100.00
57801;BME280;43627;42.728;23.256;2023-09-19T02:43:03;95358.00;;;14.13;100.00
57801;BME280;43627;42.728;23.256;2023-09-19T02:45:30;95333.09;;;14.16;100.00
57801;BME280;43627;42.728;23.256;2023-09-19T02:47:57;95328.28;;;14.11;100.00
57801;BME280;43627;42.728;23.256;2023-09-19T02:50:24;95338.91;;;14.04;100.00
57801;BME280;43627;42.728;23.256;2023-09-19T02:52:51;95316.22;;;14.03;100.00
57801;BME280;43627;42.728;23.256;2023-09-19T02:55:19;95325.94;;;14.04;100.00
57801;BME280;43627;42.728;23.256;2023-09-19T02:57:48;95332.09;;;13.99;100.00
57801;BME280;43627;42.728;23.256;2023-09-19T03:00:16;95332.09;;;13.99;100.00
57801;BME280;43627;42.728;23.256;2023-09-19T03:02:43;95329.06;;;13.97;100.00
57801;BME280;43627;42.728;23.256;2023-09-19T03:05:11;95321.91;;;13.85;100.00
57801;BME280;43627;42.728;23.256;2023-09-19T03:07:38;95322.56;;;13.80;100.00
57801;BME280;43627;42.728;23.256;2023-09-19T03:10:06;95324.44;;;13.73;100.00
57801;BME280;43627;42.728;23.256;2023-09-19T03:12:34;95323.25;;;13.75;100.00
57801;BME280;43627;42.728;23.256;2023-09-19T03:15:02;95315.56;;;13.64;100.00
57801;BME280;43627;42.728;23.256;2023-09-19T03:17:30;95323.81;;;13.49;100.00
57801;BME280;43627;42.728;23.256;2023-09-19T03:19:57;95319.06;;;13.35;100.00
57801;BME280;43627;42.728;23.256;2023-09-19T03:22:26;95314.81;;;13.34;100.00
57801;BME280;43627;42.728;23.256;2023-09-19T03:24:53;95314.91;;;13.25;100.00
57801;BME280;43627;42.728;23.256;2023-09-19T03:27:20;95312.97;;;13.16;100.00
57801;BME280;43627;42.728;23.256;2023-09-19T03:29:47;95311.06;;;13.07;100.00
57801;BME280;43627;42.728;23.256;2023-09-19T03:32:14;95325.44;;;13.02;100.00
57801;BME280;43627;42.728;23.256;2023-09-19T03:34:41;95331.66;;;13.03;100.00
57801;BME280;43627;42.728;23.256;2023-09-19T03:37:09;95332.41;;;13.03;100.00
57801;BME280;43627;42.728;23.256;2023-09-19T03:39:36;95326.50;;;12.81;100.00
57801;BME280;43627;42.728;23.256;2023-09-19T03:42:03;95334.84;;;12.63;100.00
57801;BME280;43627;42.728;23.256;2023-09-19T03:44:30;95320.63;;;12.49;100.00
57801;BME280;43627;42.728;23.256;2023-09-19T03:46:57;95328.78;;;12.35;100.00
57801;BME280;43627;42.728;23.256;2023-09-19T03:49:24;95338.63;;;12.41;100.00
57801;BME280;43627;42.728;23.256;2023-09-19T03:51:51;95328.72;;;12.44;100.00
57801;BME280;43627;42.728;23.256;2023-09-19T03:54:22;95335.06;;;12.50;100.00
57801;BME280;43627;42.728;23.256;2023-09-19T03:56:49;95332.97;;;12.45;100.00
57801;BME280;43627;42.728;23.256;2023-09-19T03:59:16;95334.78;;;12.48;100.00
57801;BME280;43627;42.728;23.256;2023-09-19T04:01:44;95345.75;;;12.39;100.00
57801;BME280;43627;42.728;23.256;2023-09-19T04:04:11;95348.38;;;12.33;100.00
57801;BME280;43627;42.728;23.256;2023-09-19T04:06:39;95346.09;;;12.32;100.00
57801;BME280;43627;42.728;23.256;2023-09-19T04:09:06;95347.44;;;12.36;100.00
57801;BME280;43627;42.728;23.256;2023-09-19T04:11:33;95348.63;;;12.44;100.00
57801;BME280;43627;42.728;23.256;2023-09-19T04:14:03;95345.56;;;12.51;100.00
57801;BME280;43627;42.728;23.256;2023-09-19T04:16:31;95338.09;;;12.52;100.00
57801;BME280;43627;42.728;23.256;2023-09-19T04:18:57;95335.25;;;12.70;100.00
57801;BME280;43627;42.728;23.256;2023-09-19T04:21:24;95339.44;;;12.80;100.00
57801;BME280;43627;42.728;23.256;2023-09-19T04:23:51;95348.28;;;12.75;100.00
57801;BME280;43627;42.728;23.256;2023-09-19T04:26:18;95349.91;;;12.82;100.00
57801;BME280;43627;42.728;23.256;2023-09-19T04:28:44;95343.16;;;12.92;100.00
57801;BME280;43627;42.728;23.256;2023-09-19T04:31:12;95341.16;;;12.93;100.00
57801;BME280;43627;42.728;23.256;2023-09-19T04:33:40;95334.09;;;13.01;100.00
57801;BME280;43627;42.728;23.256;2023-09-19T04:36:08;95347.19;;;13.21;100.00
57801;BME280;43627;42.728;23.256;2023-09-19T04:38:54;95335.97;;;13.33;100.00
57801;BME280;43627;42.728;23.256;2023-09-19T04:41:21;95331.44;;;13.45;100.00
57801;BME280;43627;42.728;23.256;2023-09-19T04:43:48;95335.06;;;13.66;100.00
57801;BME280;43627;42.728;23.256;2023-09-19T04:46:17;95334.09;;;13.84;100.00
57801;BME280;43627;42.728;23.256;2023-09-19T04:48:44;95323.47;;;14.06;100.00
57801;BME280;43627;42.728;23.256;2023-09-19T04:51:11;95322.56;;;14.29;100.00
57801;BME280;43627;42.728;23.256;2023-09-19T04:53:37;95335.44;;;14.58;100.00
57801;BME280;43627;42.728;23.256;2023-09-19T04:56:04;95327.25;;;14.79;100.00
57801;BME280;43627;42.728;23.256;2023-09-19T04:58:33;95332.72;;;14.99;100.00
57801;BME280;43627;42.728;23.256;2023-09-19T05:01:00;95331.69;;;15.17;100.00
57801;BME280;43627;42.728;23.256;2023-09-19T05:03:30;95330.34;;;15.33;100.00
57801;BME280;43627;42.728;23.256;2023-09-19T05:05:57;95304.50;;;15.45;100.00
57801;BME280;43627;42.728;23.256;2023-09-19T05:08:24;95322.47;;;15.72;100.00
57801;BME280;43627;42.728;23.256;2023-09-19T05:10:51;95333.41;;;16.29;100.00
57801;BME280;43627;42.728;23.256;2023-09-19T05:13:18;95338.91;;;17.15;100.00
57801;BME280;43627;42.728;23.256;2023-09-19T05:15:45;95337.56;;;17.92;100.00
57801;BME280;43627;42.728;23.256;2023-09-19T05:18:12;95346.75;;;18.73;100.00
57801;BME280;43627;42.728;23.256;2023-09-19T05:20:38;95337.88;;;19.03;100.00
57801;BME280;43627;42.728;23.256;2023-09-19T05:23:06;95347.22;;;19.47;98.33
57801;BME280;43627;42.728;23.256;2023-09-19T05:25:39;95337.78;;;19.25;98.07
57801;BME280;43627;42.728;23.256;2023-09-19T05:28:07;95337.72;;;19.83;94.06
57801;BME280;43627;42.728;23.256;2023-09-19T05:30:35;95343.81;;;19.71;92.72
57801;BME280;43627;42.728;23.256;2023-09-19T05:33:03;95341.88;;;20.01;87.13
57801;BME280;43627;42.728;23.256;2023-09-19T05:35:31;95321.97;;;19.67;89.33
57801;BME280;43627;42.728;23.256;2023-09-19T05:37:59;95323.16;;;19.36;95.69
57801;BME280;43627;42.728;23.256;2023-09-19T05:40:26;95329.00;;;19.21;98.50
57801;BME280;43627;42.728;23.256;2023-09-19T05:42:53;95339.75;;;18.61;100.00
57801;BME280;43627;42.728;23.256;2023-09-19T05:45:20;95321.72;;;18.32;100.00
57801;BME280;43627;42.728;23.256;2023-09-19T05:47:52;95327.50;;;18.06;100.00
57801;BME280;43627;42.728;23.256;2023-09-19T05:50:22;95319.47;;;17.80;100.00
57801;BME280;43627;42.728;23.256;2023-09-19T05:52:52;95320.75;;;17.90;100.00
57801;BME280;43627;42.728;23.256;2023-09-19T05:55:19;95328.25;;;17.79;100.00
57801;BME280;43627;42.728;23.256;2023-09-19T05:57:51;95315.47;;;17.76;100.00
57801;BME280;43627;42.728;23.256;2023-09-19T06:00:19;95321.47;;;17.68;100.00
57801;BME280;43627;42.728;23.256;2023-09-19T06:02:53;95311.97;;;18.03;100.00
57801;BME280;43627;42.728;23.256;2023-09-19T06:05:20;95311.47;;;18.21;100.00
57801;BME280;43627;42.728;23.256;2023-09-19T06:07:47;95320.72;;;18.41;100.00
57801;BME280;43627;42.728;23.256;2023-09-19T06:10:15;95316.66;;;18.59;100.00
57801;BME280;43627;42.728;23.256;2023-09-19T06:12:42;95310.13;;;18.67;100.00
57801;BME280;43627;42.728;23.256;2023-09-19T06:15:13;95301.84;;;18.67;100.00
57801;BME280;43627;42.728;23.256;2023-09-19T06:17:46;95307.84;;;18.77;100.00
57801;BME280;43627;42.728;23.256;2023-09-19T06:20:13;95300.00;;;18.92;100.00
57801;BME280;43627;42.728;23.256;2023-09-19T06:22:41;95289.16;;;19.05;100.00
57801;BME280;43627;42.728;23.256;2023-09-19T06:25:13;95304.47;;;19.48;100.00
57801;BME280;43627;42.728;23.256;2023-09-19T06:27:47;95300.00;;;19.80;97.97
57801;BME280;43627;42.728;23.256;2023-09-19T06:30:14;95286.44;;;20.07;94.61
57801;BME280;43627;42.728;23.256;2023-09-19T06:32:41;95297.75;;;20.09;92.66
57801;BME280;43627;42.728;23.256;2023-09-19T06:35:12;95297.56;;;20.31;88.64
57801;BME280;43627;42.728;23.256;2023-09-19T06:37:39;95306.84;;;20.34;87.38
57801;BME280;43627;42.728;23.256;2023-09-19T06:42:35;95304.75;;;19.85;89.73
57801;BME280;43627;42.728;23.256;2023-09-19T06:45:05;95303.47;;;19.86;90.63
57801;BME280;43627;42.728;23.256;2023-09-19T06:47:32;95301.22;;;19.85;90.97
57801;BME280;43627;42.728;23.256;2023-09-19T06:50:02;95301.75;;;19.83;91.13
57801;BME280;43627;42.728;23.256;2023-09-19T06:52:29;95304.59;;;19.72;88.96
57801;BME280;43627;42.728;23.256;2023-09-19T06:54:56;95305.91;;;19.13;94.39
57801;BME280;43627;42.728;23.256;2023-09-19T06:57:23;95300.34;;;19.24;91.74
57801;BME280;43627;42.728;23.256;2023-09-19T06:59:51;95314.81;;;19.41;92.50
57801;BME280;43627;42.728;23.256;2023-09-19T07:02:17;95312.84;;;19.36;93.13
57801;BME280;43627;42.728;23.256;2023-09-19T07:04:46;95323.59;;;19.46;92.43
57801;BME280;43627;42.728;23.256;2023-09-19T07:07:13;95311.22;;;19.58;92.85
57801;BME280;43627;42.728;23.256;2023-09-19T07:09:40;95313.28;;;19.87;87.71
57801;BME280;43627;42.728;23.256;2023-09-19T07:12:08;95309.25;;;19.88;88.31
57801;BME280;43627;42.728;23.256;2023-09-19T07:14:35;95310.13;;;19.72;89.71
57801;BME280;43627;42.728;23.256;2023-09-19T07:17:02;95316.53;;;19.91;87.84
57801;BME280;43627;42.728;23.256;2023-09-19T07:19:30;95308.34;;;19.75;87.28
57801;BME280;43627;42.728;23.256;2023-09-19T07:21:58;95289.16;;;19.47;86.41
57801;BME280;43627;42.728;23.256;2023-09-19T07:24:29;95314.56;;;19.39;88.59
57801;BME280;43627;42.728;23.256;2023-09-19T07:26:57;95323.84;;;19.48;88.64
57801;BME280;43627;42.728;23.256;2023-09-19T07:29:23;95327.75;;;19.69;88.89
57801;BME280;43627;42.728;23.256;2023-09-19T07:31:50;95314.41;;;19.73;87.55
57801;BME280;43627;42.728;23.256;2023-09-19T07:34:17;95326.25;;;19.68;88.74
57801;BME280;43627;42.728;23.256;2023-09-19T07:36:45;95322.69;;;19.73;86.86
57801;BME280;43627;42.728;23.256;2023-09-19T07:39:13;95320.09;;;19.86;86.91
57801;BME280;43627;42.728;23.256;2023-09-19T07:41:49;95315.50;;;19.94;84.95
57801;BME280;43627;42.728;23.256;2023-09-19T07:44:16;95312.19;;;20.26;84.98
57801;BME280;43627;42.728;23.256;2023-09-19T07:46:43;95325.13;;;20.48;81.14
57801;BME280;43627;42.728;23.256;2023-09-19T07:49:11;95317.31;;;19.86;85.16
57801;BME280;43627;42.728;23.256;2023-09-19T07:51:38;95326.09;;;19.49;89.48
57801;BME280;43627;42.728;23.256;2023-09-19T07:54:05;95323.00;;;19.64;89.59
57801;BME280;43627;42.728;23.256;2023-09-19T07:56:32;95319.25;;;19.97;86.66
57801;BME280;43627;42.728;23.256;2023-09-19T07:58:59;95314.34;;;20.09;85.76
57801;BME280;43627;42.728;23.256;2023-09-19T08:01:26;95317.41;;;20.35;83.08
57801;BME280;43627;42.728;23.256;2023-09-19T08:03:54;95300.38;;;20.25;79.30
57801;BME280;43627;42.728;23.256;2023-09-19T08:06:21;95302.81;;;20.35;80.32
57801;BME280;43627;42.728;23.256;2023-09-19T08:08:51;95305.00;;;20.47;80.38
57801;BME280;43627;42.728;23.256;2023-09-19T08:11:20;95296.72;;;20.66;78.31
57801;BME280;43627;42.728;23.256;2023-09-19T08:13:48;95298.38;;;20.75;78.14
57801;BME280;43627;42.728;23.256;2023-09-19T08:16:16;95309.00;;;20.71;76.80
57801;BME280;43627;42.728;23.256;2023-09-19T08:18:48;95296.28;;;21.05;74.16
57801;BME280;43627;42.728;23.256;2023-09-19T08:21:24;95286.41;;;21.29;72.85
57801;BME280;43627;42.728;23.256;2023-09-19T08:23:52;95293.56;;;21.00;74.10
57801;BME280;43627;42.728;23.256;2023-09-19T08:26:19;95299.66;;;21.36;71.61
57801;BME280;43627;42.728;23.256;2023-09-19T08:28:46;95302.13;;;21.58;70.87
57801;BME280;43627;42.728;23.256;2023-09-19T08:31:14;95308.03;;;21.68;71.34
57801;BME280;43627;42.728;23.256;2023-09-19T08:33:41;95315.19;;;21.95;69.55
57801;BME280;43627;42.728;23.256;2023-09-19T08:36:09;95301.06;;;22.12;66.20
57801;BME280;43627;42.728;23.256;2023-09-19T08:38:36;95293.81;;;22.22;64.92
57801;BME280;43627;42.728;23.256;2023-09-19T08:41:07;95303.69;;;22.37;64.73
57801;BME280;43627;42.728;23.256;2023-09-19T08:43:35;95295.97;;;22.43;64.57
57801;BME280;43627;42.728;23.256;2023-09-19T08:48:32;95275.78;;;21.97;66.53
57801;BME280;43627;42.728;23.256;2023-09-19T08:51:06;95291.78;;;22.10;65.10
57801;BME280;43627;42.728;23.256;2023-09-19T08:54:08;95276.63;;;21.92;64.30
57801;BME280;43627;42.728;23.256;2023-09-19T08:56:40;95284.94;;;22.24;64.52
57801;BME280;43627;42.728;23.256;2023-09-19T08:59:08;95288.94;;;22.29;64.91
57801;BME280;43627;42.728;23.256;2023-09-19T09:01:36;95298.22;;;22.44;65.41
57801;BME280;43627;42.728;23.256;2023-09-19T09:04:08;95292.66;;;22.31;63.11
57801;BME280;43627;42.728;23.256;2023-09-19T09:06:35;95291.63;;;22.47;62.27
57801;BME280;43627;42.728;23.256;2023-09-19T09:09:03;95288.50;;;22.64;61.57
57801;BME280;43627;42.728;23.256;2023-09-19T09:11:33;95283.25;;;22.21;62.41
57801;BME280;43627;42.728;23.256;2023-09-19T09:13:59;95290.22;;;22.41;62.82
57801;BME280;43627;42.728;23.256;2023-09-19T09:16:27;95289.88;;;22.44;61.16
57801;BME280;43627;42.728;23.256;2023-09-19T09:18:56;95276.56;;;22.69;60.98
57801;BME280;43627;42.728;23.256;2023-09-19T09:21:25;95269.50;;;22.68;60.85
57801;BME280;43627;42.728;23.256;2023-09-19T09:23:51;95265.75;;;22.52;61.67
57801;BME280;43627;42.728;23.256;2023-09-19T09:29:05;95264.66;;;22.82;60.48
57801;BME280;43627;42.728;23.256;2023-09-19T09:31:32;95252.19;;;22.75;60.89
57801;BME280;43627;42.728;23.256;2023-09-19T09:33:59;95249.41;;;22.89;58.62
57801;BME280;43627;42.728;23.256;2023-09-19T09:36:37;95252.91;;;23.02;59.41
57801;BME280;43627;42.728;23.256;2023-09-19T09:39:04;95242.00;;;22.91;58.96
57801;BME280;43627;42.728;23.256;2023-09-19T09:41:43;95247.22;;;23.08;57.26
57801;BME280;43627;42.728;23.256;2023-09-19T09:44:14;95239.81;;;23.24;57.56
57801;BME280;43627;42.728;23.256;2023-09-19T09:46:48;95235.94;;;23.27;56.66
57801;BME280;43627;42.728;23.256;2023-09-19T09:49:27;95242.34;;;23.35;57.07
57801;BME280;43627;42.728;23.256;2023-09-19T09:52:05;95242.91;;;23.33;56.39
57801;BME280;43627;42.728;23.256;2023-09-19T09:54:37;95249.22;;;23.55;55.42
57801;BME280;43627;42.728;23.256;2023-09-19T09:57:09;95236.16;;;23.29;55.42
57801;BME280;43627;42.728;23.256;2023-09-19T09:59:56;95230.13;;;23.38;55.49
57801;BME280;43627;42.728;23.256;2023-09-19T10:02:35;95234.22;;;23.58;54.75
57801;BME280;43627;42.728;23.256;2023-09-19T10:05:16;95229.59;;;23.74;55.08
57801;BME280;43627;42.728;23.256;2023-09-19T10:07:47;95228.75;;;23.65;53.59
57801;BME280;43627;42.728;23.256;2023-09-19T10:10:48;95235.22;;;23.26;54.88
57801;BME280;43627;42.728;23.256;2023-09-19T10:13:30;95219.38;;;23.21;55.53
57801;BME280;43627;42.728;23.256;2023-09-19T10:15:58;95223.28;;;23.05;56.68
57801;BME280;43627;42.728;23.256;2023-09-19T10:18:31;95237.69;;;23.17;56.75
57801;BME280;43627;42.728;23.256;2023-09-19T10:20:59;95225.31;;;23.38;56.26
57801;BME280;43627;42.728;23.256;2023-09-19T10:23:30;95234.22;;;23.58;55.51
57801;BME280;43627;42.728;23.256;2023-09-19T10:26:01;95229.19;;;23.70;54.23
57801;BME280;43627;42.728;23.256;2023-09-19T10:28:30;95230.72;;;23.78;54.10
57801;BME280;43627;42.728;23.256;2023-09-19T10:30:57;95224.88;;;23.69;53.48
57801;BME280;43627;42.728;23.256;2023-09-19T10:33:25;95219.94;;;23.75;53.74
57801;BME280;43627;42.728;23.256;2023-09-19T10:35:53;95223.53;;;23.83;53.94
57801;BME280;43627;42.728;23.256;2023-09-19T10:38:27;95224.63;;;24.01;54.24
57801;BME280;43627;42.728;23.256;2023-09-19T10:40:56;95224.13;;;24.10;52.22
57801;BME280;43627;42.728;23.256;2023-09-19T10:43:32;95209.53;;;24.17;51.63
57801;BME280;43627;42.728;23.256;2023-09-19T10:46:06;95207.72;;;24.27;51.86
57801;BME280;43627;42.728;23.256;2023-09-19T10:48:34;95196.78;;;24.29;51.51
57801;BME280;43627;42.728;23.256;2023-09-19T10:51:15;95200.78;;;24.41;50.67
57801;BME280;43627;42.728;23.256;2023-09-19T10:56:30;95191.69;;;24.20;51.98
57801;BME280;43627;42.728;23.256;2023-09-19T10:59:16;95192.66;;;24.51;50.75
57801;BME280;43627;42.728;23.256;2023-09-19T11:01:46;95189.63;;;24.41;51.05
57801;BME280;43627;42.728;23.256;2023-09-19T11:07:04;95193.41;;;24.52;50.35
57801;BME280;43627;42.728;23.256;2023-09-19T11:12:48;95199.28;;;24.40;50.96
57801;BME280;43627;42.728;23.256;2023-09-19T11:18:50;95182.44;;;24.54;50.16
57801;BME280;43627;42.728;23.256;2023-09-19T11:26:41;95172.13;;;24.69;50.52
57801;BME280;43627;42.728;23.256;2023-09-19T11:29:30;95178.63;;;24.72;49.30
57801;BME280;43627;42.728;23.256;2023-09-19T11:31:58;95161.72;;;24.34;50.15
57801;BME280;43627;42.728;23.256;2023-09-19T11:37:03;95156.53;;;24.09;51.23
57801;BME280;43627;42.728;23.256;2023-09-19T11:40:06;95154.75;;;23.91;51.92
57801;BME280;43627;42.728;23.256;2023-09-19T11:42:47;95143.75;;;24.14;52.49
57801;BME280;43627;42.728;23.256;2023-09-19T11:48:24;95129.22;;;24.80;49.60
57801;BME280;43627;42.728;23.256;2023-09-19T11:50:54;95143.03;;;24.93;49.13
57801;BME280;43627;42.728;23.256;2023-09-19T11:53:22;95144.19;;;25.05;49.07
57801;BME280;43627;42.728;23.256;2023-09-19T11:55:49;95145.31;;;25.10;48.47
57801;BME280;43627;42.728;23.256;2023-09-19T11:58:17;95134.16;;;25.10;49.55
57801;BME280;43627;42.728;23.256;2023-09-19T12:00:54;95130.47;;;25.38;47.99
57801;BME280;43627;42.728;23.256;2023-09-19T12:03:21;95123.22;;;25.12;48.13
57801;BME280;43627;42.728;23.256;2023-09-19T12:05:48;95115.44;;;25.41;47.81
57801;BME280;43627;42.728;23.256;2023-09-19T12:08:15;95118.78;;;25.40;47.43
57801;BME280;43627;42.728;23.256;2023-09-19T12:10:50;95113.00;;;25.38;48.02
57801;BME280;43627;42.728;23.256;2023-09-19T12:13:22;95107.78;;;25.26;48.74
57801;BME280;43627;42.728;23.256;2023-09-19T12:15:49;95106.13;;;25.61;47.32
57801;BME280;43627;42.728;23.256;2023-09-19T12:18:28;95102.06;;;25.78;46.67
57801;BME280;43627;42.728;23.256;2023-09-19T12:20:57;95088.81;;;25.40;47.18
57801;BME280;43627;42.728;23.256;2023-09-19T12:23:29;95085.84;;;25.23;47.95
57801;BME280;43627;42.728;23.256;2023-09-19T12:25:56;95091.22;;;25.28;47.46
57801;BME280;43627;42.728;23.256;2023-09-19T12:28:27;95091.22;;;25.13;48.52
57801;BME280;43627;42.728;23.256;2023-09-19T12:30:55;95086.00;;;25.25;48.17
57801;BME280;43627;42.728;23.256;2023-09-19T12:33:22;95077.81;;;25.12;48.79
57801;BME280;43627;42.728;23.256;2023-09-19T12:35:52;95079.44;;;24.99;49.22
57801;BME280;43627;42.728;23.256;2023-09-19T12:38:28;95071.69;;;25.36;48.83
57801;BME280;43627;42.728;23.256;2023-09-19T12:40:56;95081.91;;;25.56;47.99
57801;BME280;43627;42.728;23.256;2023-09-19T12:43:26;95082.50;;;25.32;47.74
57801;BME280;43627;42.728;23.256;2023-09-19T12:45:53;95068.88;;;25.28;48.00
57801;BME280;43627;42.728;23.256;2023-09-19T12:48:24;95078.03;;;25.44;48.38
57801;BME280;43627;42.728;23.256;2023-09-19T12:51:10;95075.94;;;25.29;48.49
57801;BME280;43627;42.728;23.256;2023-09-19T12:53:45;95064.63;;;25.35;47.92
57801;BME280;43627;42.728;23.256;2023-09-19T12:56:16;95057.34;;;25.55;47.90
57801;BME280;43627;42.728;23.256;2023-09-19T12:58:52;95057.56;;;25.49;47.67
57801;BME280;43627;42.728;23.256;2023-09-19T13:01:23;95060.53;;;25.36;48.40
57801;BME280;43627;42.728;23.256;2023-09-19T13:06:52;95047.09;;;25.65;47.17
57801;BME280;43627;42.728;23.256;2023-09-19T13:09:21;95055.13;;;25.69;47.20
57801;BME280;43627;42.728;23.256;2023-09-19T13:11:48;95057.91;;;25.84;46.25
57801;BME280;43627;42.728;23.256;2023-09-19T13:14:24;95044.09;;;25.94;46.88
57801;BME280;43627;42.728;23.256;2023-09-19T13:17:05;95035.31;;;26.05;46.57
57801;BME280;43627;42.728;23.256;2023-09-19T13:19:52;95045.22;;;25.98;46.21
57801;BME280;43627;42.728;23.256;2023-09-19T13:22:41;95027.88;;;26.07;45.69
57801;BME280;43627;42.728;23.256;2023-09-19T13:25:12;95021.69;;;26.16;45.55
57801;BME280;43627;42.728;23.256;2023-09-19T13:27:43;95036.53;;;26.34;45.22
57801;BME280;43627;42.728;23.256;2023-09-19T13:30:12;95036.16;;;26.30;45.12
57801;BME280;43627;42.728;23.256;2023-09-19T13:32:39;95029.97;;;26.47;44.70
57801;BME280;43627;42.728;23.256;2023-09-19T13:35:07;95031.63;;;26.50;44.82
57801;BME280;43627;42.728;23.256;2023-09-19T13:37:38;95031.03;;;26.59;44.53
57801;BME280;43627;42.728;23.256;2023-09-19T13:40:10;95028.22;;;26.11;45.26
57801;BME280;43627;42.728;23.256;2023-09-19T13:42:38;95023.16;;;26.25;45.17
57801;BME280;43627;42.728;23.256;2023-09-19T13:45:07;95014.53;;;26.31;44.67
57801;BME280;43627;42.728;23.256;2023-09-19T13:47:34;95023.53;;;26.22;44.99